Fil D'ecume — FS5563 — position and weather

sailwx.info

Track history (hours):
 
Tides and Currents Weather Stations Pressure Air Temp Water Temp Dewpoint Dewpoint Depression Visibility Wind Speed Wind Dir Waves Ship Positions

Fil D'ecume

Last reported at 2018-Jun-15 07:13 UTC. Time now 2018-Jun-21 17:39 UTC.
Position N 37°45' E 023°25'.

Length 13 m.

Type: Sailing vessel. MMSI: 227500120.

Date/timePositionNaut miles runAvg speedWind from/ knotsBaromVisibWave heightAir tempDewpointWater temp
2018-Jun-15 07:13N 37°45' E 023°25'1 6.2
2018-Jun-15 07:00N 37°46' E 023°25'3 6.7
2018-Jun-15 06:30N 37°49' E 023°26'3 6.8
2018-Jun-15 06:00N 37°52' E 023°27'0 0.4
2018-Jun-15 05:28N 37°53' E 023°27'0 0.0
2018-Jun-15 04:58N 37°53' E 023°27'0 0.0
2018-Jun-15 04:28N 37°53' E 023°27'0 0.0
2018-Jun-15 03:55N 37°53' E 023°27'0 0.0
2018-Jun-15 03:28N 37°53' E 023°27'0 0.0
2018-Jun-15 02:58N 37°53' E 023°27'0 0.0
2018-Jun-15 02:28N 37°53' E 023°27'0 0.0
2018-Jun-15 01:58N 37°53' E 023°27'0 0.0
2018-Jun-15 01:28N 37°53' E 023°27'0 0.0
2018-Jun-15 00:58N 37°53' E 023°27'0 0.0
2018-Jun-15 00:28N 37°53' E 023°27'0 0.0
2018-Jun-14 23:58N 37°53' E 023°27'0 0.0
2018-Jun-14 23:28N 37°53' E 023°27'0 0.0
2018-Jun-14 22:58N 37°53' E 023°27'0 0.0
2018-Jun-14 22:28N 37°53' E 023°27'0 0.0
2018-Jun-14 21:58N 37°53' E 023°27'0 0.0
2018-Jun-14 21:28N 37°53' E 023°27'0 0.0
2018-Jun-14 20:58N 37°53' E 023°27'0 0.0
2018-Jun-14 20:28N 37°53' E 023°27'0 0.0
2018-Jun-14 19:58N 37°53' E 023°27'0 0.0
2018-Jun-14 19:28N 37°53' E 023°27'0 0.0
2018-Jun-14 18:49N 37°53' E 023°27'0 0.0
2018-Jun-14 18:28N 37°53' E 023°27'0 0.0
2018-Jun-14 17:52N 37°53' E 023°27'0 0.0
2018-Jun-14 17:28N 37°53' E 023°27'0 0.0
2018-Jun-14 16:58N 37°53' E 023°27'0 0.0
2018-Jun-14 16:28N 37°53' E 023°27'0 0.0
2018-Jun-14 15:58N 37°53' E 023°27'0 0.0
2018-Jun-14 15:28N 37°53' E 023°27'0 0.0
2018-Jun-14 14:58N 37°53' E 023°27'0 0.0
2018-Jun-14 14:25N 37°53' E 023°27'0 0.0
2018-Jun-14 13:58N 37°53' E 023°27'0 0.0
2018-Jun-14 13:28N 37°53' E 023°27'0 0.0
2018-Jun-14 12:58N 37°53' E 023°27'0 0.0
2018-Jun-14 12:28N 37°53' E 023°27'0 0.0
2018-Jun-14 11:58N 37°53' E 023°27'0 0.0
2018-Jun-14 11:25N 37°53' E 023°27'0 0.0
2018-Jun-14 10:58N 37°53' E 023°27'2 3.3
2018-Jun-14 10:30N 37°53' E 023°29'2 5.0
2018-Jun-14 10:00N 37°54' E 023°32'3 5.2
2018-Jun-14 09:30N 37°55' E 023°35'3 5.2
2018-Jun-14 09:00N 37°56' E 023°39'1 0.1
2018-Jun-13 14:42N 37°56' E 023°40'0 0.0
2018-Jun-13 14:30N 37°56' E 023°40'0 0.0
2018-Jun-13 14:00N 37°56' E 023°40'0 0.0
2018-Jun-13 13:30N 37°56' E 023°40'0 0.0
2018-Jun-13 13:00N 37°56' E 023°40'0 0.0
2018-Jun-13 12:30N 37°56' E 023°40'0 0.0
2018-Jun-13 12:00N 37°56' E 023°40'0 0.0
2018-Jun-13 11:30N 37°56' E 023°40'0 0.0
2018-Jun-13 11:00N 37°56' E 023°40'0 0.0
2018-Jun-13 10:30N 37°56' E 023°40'0 0.0
2018-Jun-13 10:00N 37°56' E 023°40'0 0.0
2018-Jun-13 09:30N 37°56' E 023°40'0 0.0
2018-Jun-13 09:00N 37°56' E 023°40'0 0.0
2018-Jun-13 08:30N 37°56' E 023°40'0 0.0
2018-Jun-13 07:57N 37°56' E 023°40'0 0.0
2018-Jun-13 07:30N 37°56' E 023°40'0 0.0
2018-Jun-13 07:00N 37°56' E 023°40'0 0.0
2018-Jun-13 06:30N 37°56' E 023°40'0 0.0
2018-Jun-13 06:00N 37°56' E 023°40'0 0.0
2018-Jun-13 05:30N 37°56' E 023°40'0 0.0
2018-Jun-13 05:00N 37°56' E 023°40'0 0.0
2018-Jun-13 04:30N 37°56' E 023°40'0 0.0
2018-Jun-13 04:00N 37°56' E 023°40'0 0.0
2018-Jun-13 03:30N 37°56' E 023°40'0 0.0
2018-Jun-13 03:00N 37°56' E 023°40'0 0.0
2018-Jun-13 02:30N 37°56' E 023°40'0 0.0
2018-Jun-13 02:00N 37°56' E 023°40'0 0.0
2018-Jun-13 01:30N 37°56' E 023°40'0 0.0
2018-Jun-13 01:00N 37°56' E 023°40'0 0.0
2018-Jun-13 00:30N 37°56' E 023°40'0 0.0
2018-Jun-13 00:00N 37°56' E 023°40'0 0.0
2018-Jun-12 23:30N 37°56' E 023°40'0 0.0
2018-Jun-12 23:00N 37°56' E 023°40'0 0.0
2018-Jun-12 22:30N 37°56' E 023°40'0 0.0
2018-Jun-12 21:57N 37°56' E 023°40'0 0.0
2018-Jun-12 21:30N 37°56' E 023°40'0 0.0
2018-Jun-12 21:00N 37°56' E 023°40'0 0.0
2018-Jun-12 20:30N 37°56' E 023°40'0 0.0
2018-Jun-12 20:00N 37°56' E 023°40'0 0.0
2018-Jun-12 19:30N 37°56' E 023°40'0 0.0
2018-Jun-12 19:00N 37°56' E 023°40'0 0.0
2018-Jun-12 18:30N 37°56' E 023°40'0 0.0
2018-Jun-12 18:00N 37°56' E 023°40'0 0.0
2018-Jun-12 17:30N 37°56' E 023°40'0 0.0
2018-Jun-12 17:00N 37°56' E 023°40'0 0.0
2018-Jun-12 16:30N 37°56' E 023°40'0 0.0
2018-Jun-12 16:00N 37°56' E 023°40'0 0.0
2018-Jun-12 15:27N 37°56' E 023°40'0 0.0
2018-Jun-12 15:00N 37°56' E 023°40'0 0.0
2018-Jun-12 14:30N 37°56' E 023°40'0 0.0
2018-Jun-12 14:00N 37°56' E 023°40'0 0.0
2018-Jun-12 13:30N 37°56' E 023°40'0 0.0
2018-Jun-12 13:00N 37°56' E 023°40'0 0.0
2018-Jun-12 12:30N 37°56' E 023°40'0 0.0
2018-Jun-12 12:00N 37°56' E 023°40'0 0.0
2018-Jun-12 11:30N 37°56' E 023°40'0 0.0
2018-Jun-12 10:57N 37°56' E 023°40'0 0.0
2018-Jun-12 10:30N 37°56' E 023°40'0 0.0
2018-Jun-12 10:00N 37°56' E 023°40'0 0.0
2018-Jun-12 09:27N 37°56' E 023°40'0 0.0
2018-Jun-12 09:00N 37°56' E 023°40'0 0.0
2018-Jun-12 08:30N 37°56' E 023°40'0 0.0
2018-Jun-12 08:00N 37°56' E 023°40'0 0.0
2018-Jun-12 07:30N 37°56' E 023°40'0 0.0
2018-Jun-12 07:00N 37°56' E 023°40'0 0.0
2018-Jun-12 06:30N 37°56' E 023°40'0 0.0
2018-Jun-12 06:00N 37°56' E 023°40'0 0.0
2018-Jun-12 05:30N 37°56' E 023°40'0 0.0
2018-Jun-12 05:00N 37°56' E 023°40'0 0.0
2018-Jun-12 04:30N 37°56' E 023°40'0 0.0
2018-Jun-12 04:00N 37°56' E 023°40'0 0.0
2018-Jun-12 03:27N 37°56' E 023°40'0 0.0
2018-Jun-12 03:00N 37°56' E 023°40'0 0.0
2018-Jun-12 02:30N 37°56' E 023°40'0 0.0
2018-Jun-12 02:00N 37°56' E 023°40'0 0.0
2018-Jun-12 01:30N 37°56' E 023°40'0 0.0
2018-Jun-12 01:00N 37°56' E 023°40'0 0.0
2018-Jun-12 00:30N 37°56' E 023°40'0 0.0
2018-Jun-12 00:00N 37°56' E 023°40'0 0.0
2018-Jun-11 23:30N 37°56' E 023°40'0 0.0
2018-Jun-11 23:00N 37°56' E 023°40'0 0.0
2018-Jun-11 22:30N 37°56' E 023°40'0 0.0
2018-Jun-11 22:00N 37°56' E 023°40'0 0.0
2018-Jun-11 21:30N 37°56' E 023°40'0 0.0
2018-Jun-11 21:00N 37°56' E 023°40'0 0.0
2018-Jun-11 20:27N 37°56' E 023°40'0 0.0
2018-Jun-11 20:00N 37°56' E 023°40'0 0.0
2018-Jun-11 19:30N 37°56' E 023°40'0 0.0
2018-Jun-11 18:57N 37°56' E 023°40'0 0.0
2018-Jun-11 18:30N 37°56' E 023°40'0 0.0
2018-Jun-11 18:00N 37°56' E 023°40'0 0.0
2018-Jun-11 17:27N 37°56' E 023°40'0 0.0
2018-Jun-11 17:00N 37°56' E 023°40'0 0.0
2018-Jun-11 16:30N 37°56' E 023°40'0 0.0
2018-Jun-11 16:00N 37°56' E 023°40'0 0.0
2018-Jun-11 15:30N 37°56' E 023°40'0 0.0
2018-Jun-11 15:00N 37°56' E 023°40'0 0.0
2018-Jun-11 14:30N 37°56' E 023°40'0 0.0
2018-Jun-11 14:00N 37°56' E 023°40'0 0.0
2018-Jun-11 13:30N 37°56' E 023°40'0 0.0
2018-Jun-11 13:00N 37°56' E 023°40'0 0.0
2018-Jun-11 12:27N 37°56' E 023°40'0 0.0
2018-Jun-11 12:00N 37°56' E 023°40'0 0.0
2018-Jun-11 11:30N 37°56' E 023°40'0 0.0
2018-Jun-11 11:00N 37°56' E 023°40'0 0.0
2018-Jun-11 10:30N 37°56' E 023°40'0 0.0
2018-Jun-11 10:00N 37°56' E 023°40'0 0.0
2018-Jun-11 09:30N 37°56' E 023°40'0 0.0
2018-Jun-11 09:00N 37°56' E 023°40'0 0.0
2018-Jun-11 08:30N 37°56' E 023°40'0 0.0
2018-Jun-11 08:00N 37°56' E 023°40'0 0.0
2018-Jun-11 07:30N 37°56' E 023°40'0 0.0
2018-Jun-11 07:00N 37°56' E 023°40'0 0.0
2018-Jun-11 06:30N 37°56' E 023°40'0 0.0
2018-Jun-11 06:00N 37°56' E 023°40'0 0.0
2018-Jun-11 05:30N 37°56' E 023°40'0 0.0
2018-Jun-11 05:00N 37°56' E 023°40'0 0.0
2018-Jun-11 04:30N 37°56' E 023°40'0 0.0
2018-Jun-11 04:00N 37°56' E 023°40'0 0.0
2018-Jun-11 03:30N 37°56' E 023°40'0 0.0
2018-Jun-11 03:00N 37°56' E 023°40'0 0.0
2018-Jun-11 02:30N 37°56' E 023°40'0 0.0
2018-Jun-11 02:00N 37°56' E 023°40'0 0.0
2018-Jun-11 01:30N 37°56' E 023°40'0 0.0
2018-Jun-11 01:00N 37°56' E 023°40'0 0.0
2018-Jun-11 00:30N 37°56' E 023°40'0 0.0
2018-Jun-11 00:00N 37°56' E 023°40'0 0.0
2018-Jun-10 23:30N 37°56' E 023°40'0 0.0
2018-Jun-10 23:00N 37°56' E 023°40'0 0.0
2018-Jun-10 22:30N 37°56' E 023°40'0 0.0
2018-Jun-10 22:00N 37°56' E 023°40'0 0.0
2018-Jun-10 21:30N 37°56' E 023°40'0 0.0
2018-Jun-10 21:00N 37°56' E 023°40'0 0.0
2018-Jun-10 20:30N 37°56' E 023°40'0 0.0
2018-Jun-10 20:00N 37°56' E 023°40'0 0.0
2018-Jun-10 19:30N 37°56' E 023°40'0 0.0
2018-Jun-10 19:00N 37°56' E 023°40'0 0.0
2018-Jun-10 18:30N 37°56' E 023°40'0 0.0
2018-Jun-10 17:57N 37°56' E 023°40'0 0.0
2018-Jun-10 17:30N 37°56' E 023°40'0 0.0
2018-Jun-10 16:57N 37°56' E 023°40'0 0.0
2018-Jun-10 16:30N 37°56' E 023°40'0 0.0
2018-Jun-10 16:00N 37°56' E 023°40'0 0.0
2018-Jun-10 15:30N 37°56' E 023°40'0 0.0
2018-Jun-10 15:00N 37°56' E 023°40'0 0.0
2018-Jun-10 14:30N 37°56' E 023°40'0 0.0
2018-Jun-10 13:30N 37°56' E 023°40'0 0.0
2018-Jun-10 13:00N 37°56' E 023°40'0 0.0
2018-Jun-10 12:30N 37°56' E 023°40'0 0.0
2018-Jun-10 12:00N 37°56' E 023°40'0 0.0
2018-Jun-10 11:30N 37°56' E 023°40'0 0.0
2018-Jun-10 11:00N 37°56' E 023°40'0 0.0
2018-Jun-10 10:30N 37°56' E 023°40'0 0.0
2018-Jun-10 10:00N 37°56' E 023°40'0 0.0
2018-Jun-10 09:27N 37°56' E 023°40'0 0.0
2018-Jun-10 09:00N 37°56' E 023°40'0 0.0
2018-Jun-10 08:30N 37°56' E 023°40'0 0.0
2018-Jun-10 07:57N 37°56' E 023°40'0 0.0
2018-Jun-10 07:30N 37°56' E 023°40'0 0.0
2018-Jun-10 07:00N 37°56' E 023°40'0 0.0
2018-Jun-10 06:30N 37°56' E 023°40'0 0.0
2018-Jun-10 06:00N 37°56' E 023°40'0 0.0
2018-Jun-10 05:30N 37°56' E 023°40'0 0.0
2018-Jun-10 04:57N 37°56' E 023°40'0 0.0
2018-Jun-10 04:27N 37°56' E 023°40'0 0.0
2018-Jun-10 04:00N 37°56' E 023°40'0 0.0
2018-Jun-10 03:30N 37°56' E 023°40'0 0.0
2018-Jun-10 02:57N 37°56' E 023°40'0 0.0
2018-Jun-10 02:30N 37°56' E 023°40'0 0.0
2018-Jun-10 02:00N 37°56' E 023°40'0 0.0
2018-Jun-10 01:30N 37°56' E 023°40'0 0.0
2018-Jun-10 01:00N 37°56' E 023°40'0 0.0
2018-Jun-10 00:30N 37°56' E 023°40'0 0.0
2018-Jun-10 00:00N 37°56' E 023°40'0 0.0
2018-Jun-09 23:30N 37°56' E 023°40'0 0.0
2018-Jun-09 23:00N 37°56' E 023°40'0 0.0
2018-Jun-09 22:30N 37°56' E 023°40'0 0.0
2018-Jun-09 22:00N 37°56' E 023°40'0 0.0
2018-Jun-09 21:30N 37°56' E 023°40'0 0.0
2018-Jun-09 21:00N 37°56' E 023°40'0 0.0
2018-Jun-09 20:30N 37°56' E 023°40'0 0.0
2018-Jun-09 20:00N 37°56' E 023°40'0 0.0
2018-Jun-09 19:30N 37°56' E 023°40'0 0.0
2018-Jun-09 19:00N 37°56' E 023°40'0 0.0
2018-Jun-09 18:30N 37°56' E 023°40'0 0.0
2018-Jun-09 18:00N 37°56' E 023°40'0 0.0
2018-Jun-09 17:30N 37°56' E 023°40'0 0.0
2018-Jun-09 17:00N 37°56' E 023°40'0 0.0
2018-Jun-09 16:30N 37°56' E 023°40'0 0.0
2018-Jun-09 16:00N 37°56' E 023°40'0 0.0
2018-Jun-09 15:00N 37°56' E 023°40'0 0.0
2018-Jun-09 14:30N 37°56' E 023°40'0 0.0
2018-Jun-09 14:00N 37°56' E 023°40'0 0.0
2018-Jun-09 13:31N 37°56' E 023°40'0 0.0
2018-Jun-09 13:00N 37°56' E 023°40'0 0.0
2018-Jun-09 12:30N 37°56' E 023°40'0 0.0
2018-Jun-09 12:01N 37°56' E 023°40'0 0.0
2018-Jun-09 11:30N 37°56' E 023°40'0 0.0
2018-Jun-09 10:57N 37°56' E 023°40'0 0.0
2018-Jun-09 10:31N 37°56' E 023°40'0 0.0
2018-Jun-09 10:01N 37°56' E 023°40'0 0.0
2018-Jun-09 09:31N 37°56' E 023°40'0 0.0
2018-Jun-09 09:01N 37°56' E 023°40'0 0.0
2018-Jun-09 08:31N 37°56' E 023°40'0 0.0
2018-Jun-09 07:58N 37°56' E 023°40'0 0.0
2018-Jun-09 07:31N 37°56' E 023°40'0 0.0
2018-Jun-09 06:58N 37°56' E 023°40'0 0.0
2018-Jun-09 06:31N 37°56' E 023°40'0 0.0
2018-Jun-09 05:58N 37°56' E 023°40'0 0.0
2018-Jun-09 05:28N 37°56' E 023°40'0 0.0
2018-Jun-09 04:58N 37°56' E 023°40'0 0.0
2018-Jun-09 04:28N 37°56' E 023°40'0 0.0
2018-Jun-09 03:58N 37°56' E 023°40'0 0.0
2018-Jun-09 03:28N 37°56' E 023°40'0 0.0
2018-Jun-09 02:58N 37°56' E 023°40'0 0.0
2018-Jun-09 02:28N 37°56' E 023°40'0 0.0
2018-Jun-09 01:55N 37°56' E 023°40'0 0.0
2018-Jun-09 01:28N 37°56' E 023°40'0 0.0
2018-Jun-09 00:58N 37°56' E 023°40'0 0.0
2018-Jun-09 00:28N 37°56' E 023°40'0 0.0
2018-Jun-08 23:58N 37°56' E 023°40'0 0.0
2018-Jun-08 23:28N 37°56' E 023°40'0 0.0
2018-Jun-08 22:58N 37°56' E 023°40'0 0.0
2018-Jun-08 22:28N 37°56' E 023°40'0 0.0
2018-Jun-08 21:58N 37°56' E 023°40'0 0.0
2018-Jun-08 21:25N 37°56' E 023°40'0 0.0
2018-Jun-08 20:55N 37°56' E 023°40'0 0.0
2018-Jun-08 20:28N 37°56' E 023°40'0 0.0
2018-Jun-08 19:58N 37°56' E 023°40'0 0.0
2018-Jun-08 19:28N 37°56' E 023°40'0 0.0
2018-Jun-08 18:58N 37°56' E 023°40'0 0.0
2018-Jun-08 18:28N 37°56' E 023°40'0 0.0
2018-Jun-08 17:58N 37°56' E 023°40'0 0.0
2018-Jun-08 17:28N 37°56' E 023°40'0 0.0
2018-Jun-08 16:58N 37°56' E 023°40'0 0.0
2018-Jun-08 16:28N 37°56' E 023°40'0 0.0
2018-Jun-08 15:58N 37°56' E 023°40'0 0.0
2018-Jun-08 15:28N 37°56' E 023°40'0 0.0
2018-Jun-08 14:55N 37°56' E 023°40'0 0.0
2018-Jun-08 14:28N 37°56' E 023°40'0 0.0
2018-Jun-08 13:58N 37°56' E 023°40'0 0.0
2018-Jun-08 13:28N 37°56' E 023°40'0 0.0
2018-Jun-08 12:55N 37°56' E 023°40'0 0.0
2018-Jun-08 12:28N 37°56' E 023°40'0 0.0
2018-Jun-08 11:58N 37°56' E 023°40'0 0.0
2018-Jun-08 11:28N 37°56' E 023°40'0 0.0
2018-Jun-08 10:58N 37°56' E 023°40'0 0.0
2018-Jun-08 10:25N 37°56' E 023°40'0 0.0
2018-Jun-08 09:58N 37°56' E 023°40'0 0.0
2018-Jun-08 09:28N 37°56' E 023°40'0 0.0
2018-Jun-08 08:58N 37°56' E 023°40'0 0.0
2018-Jun-08 08:28N 37°56' E 023°40'0 0.0
2018-Jun-08 07:58N 37°56' E 023°40'0 0.0
2018-Jun-08 07:28N 37°56' E 023°40'0 0.0
2018-Jun-08 06:58N 37°56' E 023°40'0 0.0
2018-Jun-08 06:28N 37°56' E 023°40'0 0.0
2018-Jun-08 05:58N 37°56' E 023°40'0 0.0
2018-Jun-08 05:28N 37°56' E 023°40'0 0.0
2018-Jun-08 04:58N 37°56' E 023°40'0 0.0
2018-Jun-08 04:25N 37°56' E 023°40'0 0.0
2018-Jun-08 03:58N 37°56' E 023°40'0 0.0
2018-Jun-08 03:28N 37°56' E 023°40'0 0.0
2018-Jun-08 02:58N 37°56' E 023°40'0 0.0
2018-Jun-08 02:28N 37°56' E 023°40'0 0.0
2018-Jun-08 01:58N 37°56' E 023°40'0 0.0
2018-Jun-08 01:28N 37°56' E 023°40'0 0.0
2018-Jun-08 00:58N 37°56' E 023°40'0 0.0
2018-Jun-08 00:28N 37°56' E 023°40'0 0.0
2018-Jun-07 23:58N 37°56' E 023°40'0 0.0
2018-Jun-07 23:28N 37°56' E 023°40'0 0.0
2018-Jun-07 22:58N 37°56' E 023°40'0 0.0
2018-Jun-07 22:28N 37°56' E 023°40'0 0.0
2018-Jun-07 21:58N 37°56' E 023°40'0 0.0
2018-Jun-07 21:28N 37°56' E 023°40'0 0.0
2018-Jun-07 20:58N 37°56' E 023°40'0 0.0
2018-Jun-07 20:28N 37°56' E 023°40'0 0.0
2018-Jun-07 19:58N 37°56' E 023°40'0 0.0
2018-Jun-07 19:28N 37°56' E 023°40'0 0.0
2018-Jun-07 18:58N 37°56' E 023°40'0 0.0
2018-Jun-07 18:28N 37°56' E 023°40'0 0.0
2018-Jun-07 17:58N 37°56' E 023°40'0 0.0
2018-Jun-07 17:28N 37°56' E 023°40'0 0.0
2018-Jun-07 16:58N 37°56' E 023°40'0 0.0
2018-Jun-07 16:28N 37°56' E 023°40'0 0.0
2018-Jun-07 15:58N 37°56' E 023°40'0 0.0
2018-Jun-07 15:28N 37°56' E 023°40'0 0.0
2018-Jun-07 14:58N 37°56' E 023°40'0 0.0
2018-Jun-07 14:28N 37°56' E 023°40'0 0.0
2018-Jun-07 13:58N 37°56' E 023°40'0 0.0
2018-Jun-07 13:28N 37°56' E 023°40'0 0.0
2018-Jun-07 12:58N 37°56' E 023°40'0 0.0
2018-Jun-07 12:28N 37°56' E 023°40'0 0.0
2018-Jun-07 11:58N 37°56' E 023°40'0 0.0
2018-Jun-07 11:28N 37°56' E 023°40'0 0.0
2018-Jun-07 10:58N 37°56' E 023°40'0 0.0
2018-Jun-07 10:28N 37°56' E 023°40'0 0.0
2018-Jun-07 09:58N 37°56' E 023°40'0 0.0
2018-Jun-07 09:25N 37°56' E 023°40'0 0.0
2018-Jun-07 08:58N 37°56' E 023°40'0 0.0
2018-Jun-07 08:28N 37°56' E 023°40'0 0.0
2018-Jun-07 07:58N 37°56' E 023°40'0 0.0
2018-Jun-07 07:28N 37°56' E 023°40'0 0.0
2018-Jun-07 06:55N 37°56' E 023°40'0 0.0
2018-Jun-07 06:28N 37°56' E 023°40'0 0.0
2018-Jun-07 05:58N 37°56' E 023°40'0 0.0
2018-Jun-07 05:28N 37°56' E 023°40'0 0.0
2018-Jun-07 04:58N 37°56' E 023°40'0 0.0
2018-Jun-07 04:28N 37°56' E 023°40'0 0.0
2018-Jun-07 03:58N 37°56' E 023°40'0 0.0
2018-Jun-07 03:28N 37°56' E 023°40'0 0.0
2018-Jun-07 02:58N 37°56' E 023°40'0 0.0
2018-Jun-07 02:28N 37°56' E 023°40'0 0.0
2018-Jun-07 01:58N 37°56' E 023°40'0 0.0
2018-Jun-07 01:19N 37°56' E 023°40'0 0.0
2018-Jun-07 00:58N 37°56' E 023°40'0 0.0
2018-Jun-07 00:28N 37°56' E 023°40'0 0.0
2018-Jun-06 23:55N 37°56' E 023°40'0 0.0
2018-Jun-06 23:28N 37°56' E 023°40'0 0.0
2018-Jun-06 22:58N 37°56' E 023°40'0 0.0
2018-Jun-06 22:28N 37°56' E 023°40'0 0.0
2018-Jun-06 21:58N 37°56' E 023°40'0 0.0
2018-Jun-06 21:28N 37°56' E 023°40'0 0.0
2018-Jun-06 20:58N 37°56' E 023°40'0 0.0
2018-Jun-06 20:28N 37°56' E 023°40'0 0.0
2018-Jun-06 19:58N 37°56' E 023°40'0 0.0
2018-Jun-06 19:28N 37°56' E 023°40'0 0.0
2018-Jun-06 18:58N 37°56' E 023°40'0 0.0
2018-Jun-06 18:28N 37°56' E 023°40'0 0.0
2018-Jun-06 17:58N 37°56' E 023°40'0 0.0
2018-Jun-06 17:28N 37°56' E 023°40'0 0.0
2018-Jun-06 16:58N 37°56' E 023°40'0 0.0
2018-Jun-06 16:28N 37°56' E 023°40'0 0.0
2018-Jun-06 15:58N 37°56' E 023°40'0 0.0
2018-Jun-06 15:28N 37°56' E 023°40'0 0.0
2018-Jun-06 14:58N 37°56' E 023°40'0 0.0
2018-Jun-06 14:28N 37°56' E 023°40'0 0.0
2018-Jun-06 13:58N 37°56' E 023°40'0 0.0
2018-Jun-06 13:28N 37°56' E 023°40'0 0.0
2018-Jun-06 12:58N 37°56' E 023°40'0 0.0
2018-Jun-06 12:28N 37°56' E 023°40'0 0.0
2018-Jun-06 11:58N 37°56' E 023°40'2 3.4
2018-Jun-06 11:30N 37°56' E 023°38'3 5.9
2018-Jun-06 11:00N 37°55' E 023°35'3 5.9
2018-Jun-06 10:30N 37°54' E 023°31'3 5.2
2018-Jun-06 09:57N 37°53' E 023°28'0 0.9
2018-Jun-06 09:28N 37°53' E 023°27'0 0.0
2018-Jun-06 08:55N 37°53' E 023°27'0 0.0
2018-Jun-06 08:28N 37°53' E 023°27'0 0.0
2018-Jun-06 07:52N 37°53' E 023°27'0 0.0
2018-Jun-06 07:28N 37°53' E 023°27'0 0.0
2018-Jun-06 06:52N 37°53' E 023°27'0 0.0
2018-Jun-06 06:28N 37°53' E 023°27'0 0.0
2018-Jun-06 05:52N 37°53' E 023°27'0 0.0
2018-Jun-06 05:28N 37°53' E 023°27'0 0.0
2018-Jun-06 04:58N 37°53' E 023°27'0 0.0
2018-Jun-06 04:28N 37°53' E 023°27'0 0.0
2018-Jun-06 03:55N 37°53' E 023°27'0 0.0
2018-Jun-06 03:28N 37°53' E 023°27'0 0.0
2018-Jun-06 02:58N 37°53' E 023°27'0 0.0
2018-Jun-06 02:28N 37°53' E 023°27'0 0.0
2018-Jun-06 01:58N 37°53' E 023°27'0 0.0
2018-Jun-06 01:28N 37°53' E 023°27'0 0.0
2018-Jun-06 00:58N 37°53' E 023°27'0 0.0
2018-Jun-06 00:28N 37°53' E 023°27'0 0.0
2018-Jun-05 23:55N 37°53' E 023°27'0 0.0
2018-Jun-05 23:28N 37°53' E 023°27'0 0.0
2018-Jun-05 22:55N 37°53' E 023°27'0 0.0
2018-Jun-05 22:28N 37°53' E 023°27'0 0.0
2018-Jun-05 21:58N 37°53' E 023°27'0 0.0
2018-Jun-05 21:28N 37°53' E 023°27'0 0.0
2018-Jun-05 20:58N 37°53' E 023°27'0 0.0
2018-Jun-05 20:28N 37°53' E 023°27'0 0.0
2018-Jun-05 19:58N 37°53' E 023°27'0 0.0
2018-Jun-05 19:28N 37°53' E 023°27'0 0.0
2018-Jun-05 18:58N 37°53' E 023°27'0 0.0
2018-Jun-05 18:28N 37°53' E 023°27'0 0.0
2018-Jun-05 17:58N 37°53' E 023°27'0 0.0
2018-Jun-05 17:28N 37°53' E 023°27'0 0.0
2018-Jun-05 16:58N 37°53' E 023°27'0 0.0
2018-Jun-05 16:28N 37°53' E 023°27'0 0.0
2018-Jun-05 15:58N 37°53' E 023°27'0 0.0
2018-Jun-05 15:28N 37°53' E 023°27'0 0.0
2018-Jun-05 14:58N 37°53' E 023°27'0 0.0
2018-Jun-05 14:28N 37°53' E 023°27'0 0.0
2018-Jun-05 13:58N 37°53' E 023°27'0 0.0
2018-Jun-05 13:28N 37°53' E 023°27'0 0.1
2018-Jun-05 13:00N 37°53' E 023°27'2 4.5
2018-Jun-05 12:30N 37°51' E 023°25'2 3.7
2018-Jun-05 12:00N 37°51' E 023°23'2 4.1
2018-Jun-05 11:30N 37°50' E 023°20'2 4.6
2018-Jun-05 11:00N 37°49' E 023°18'2 1.4
2018-Jun-05 09:27N 37°48' E 023°15'2 4.4
2018-Jun-05 08:57N 37°46' E 023°14'  
Track history (hours):
 
Tides and Currents Weather Stations Pressure Air Temp Water Temp Dewpoint Dewpoint Depression Visibility Wind Speed Wind Dir Waves Ship Positions

Fil D'ecume

Last reported at 2018-Jun-15 07:13 UTC. Time now 2018-Jun-21 17:39 UTC.
Position N 37°45' E 023°25'.

Length 13 m.

Type: Sailing vessel. MMSI: 227500120.

Date/timePositionNaut miles runAvg speedWind from/ knotsBaromVisibWave heightAir tempDewpointWater temp
2018-Jun-15 07:13N 37°45' E 023°25'1 6.2
2018-Jun-15 07:00N 37°46' E 023°25'3 6.7
2018-Jun-15 06:30N 37°49' E 023°26'3 6.8
2018-Jun-15 06:00N 37°52' E 023°27'0 0.4
2018-Jun-15 05:28N 37°53' E 023°27'0 0.0
2018-Jun-15 04:58N 37°53' E 023°27'0 0.0
2018-Jun-15 04:28N 37°53' E 023°27'0 0.0
2018-Jun-15 03:55N 37°53' E 023°27'0 0.0
2018-Jun-15 03:28N 37°53' E 023°27'0 0.0
2018-Jun-15 02:58N 37°53' E 023°27'0 0.0
2018-Jun-15 02:28N 37°53' E 023°27'0 0.0
2018-Jun-15 01:58N 37°53' E 023°27'0 0.0
2018-Jun-15 01:28N 37°53' E 023°27'0 0.0
2018-Jun-15 00:58N 37°53' E 023°27'0 0.0
2018-Jun-15 00:28N 37°53' E 023°27'0 0.0
2018-Jun-14 23:58N 37°53' E 023°27'0 0.0
2018-Jun-14 23:28N 37°53' E 023°27'0 0.0
2018-Jun-14 22:58N 37°53' E 023°27'0 0.0
2018-Jun-14 22:28N 37°53' E 023°27'0 0.0
2018-Jun-14 21:58N 37°53' E 023°27'0 0.0
2018-Jun-14 21:28N 37°53' E 023°27'0 0.0
2018-Jun-14 20:58N 37°53' E 023°27'0 0.0
2018-Jun-14 20:28N 37°53' E 023°27'0 0.0
2018-Jun-14 19:58N 37°53' E 023°27'0 0.0
2018-Jun-14 19:28N 37°53' E 023°27'0 0.0
2018-Jun-14 18:49N 37°53' E 023°27'0 0.0
2018-Jun-14 18:28N 37°53' E 023°27'0 0.0
2018-Jun-14 17:52N 37°53' E 023°27'0 0.0
2018-Jun-14 17:28N 37°53' E 023°27'0 0.0
2018-Jun-14 16:58N 37°53' E 023°27'0 0.0
2018-Jun-14 16:28N 37°53' E 023°27'0 0.0
2018-Jun-14 15:58N 37°53' E 023°27'0 0.0
2018-Jun-14 15:28N 37°53' E 023°27'0 0.0
2018-Jun-14 14:58N 37°53' E 023°27'0 0.0
2018-Jun-14 14:25N 37°53' E 023°27'0 0.0
2018-Jun-14 13:58N 37°53' E 023°27'0 0.0
2018-Jun-14 13:28N 37°53' E 023°27'0 0.0
2018-Jun-14 12:58N 37°53' E 023°27'0 0.0
2018-Jun-14 12:28N 37°53' E 023°27'0 0.0
2018-Jun-14 11:58N 37°53' E 023°27'0 0.0
2018-Jun-14 11:25N 37°53' E 023°27'0 0.0
2018-Jun-14 10:58N 37°53' E 023°27'2 3.3
2018-Jun-14 10:30N 37°53' E 023°29'2 5.0
2018-Jun-14 10:00N 37°54' E 023°32'3 5.2
2018-Jun-14 09:30N 37°55' E 023°35'3 5.2
2018-Jun-14 09:00N 37°56' E 023°39'1 0.1
2018-Jun-13 14:42N 37°56' E 023°40'0 0.0
2018-Jun-13 14:30N 37°56' E 023°40'0 0.0
2018-Jun-13 14:00N 37°56' E 023°40'0 0.0
2018-Jun-13 13:30N 37°56' E 023°40'0 0.0
2018-Jun-13 13:00N 37°56' E 023°40'0 0.0
2018-Jun-13 12:30N 37°56' E 023°40'0 0.0
2018-Jun-13 12:00N 37°56' E 023°40'0 0.0
2018-Jun-13 11:30N 37°56' E 023°40'0 0.0
2018-Jun-13 11:00N 37°56' E 023°40'0 0.0
2018-Jun-13 10:30N 37°56' E 023°40'0 0.0
2018-Jun-13 10:00N 37°56' E 023°40'0 0.0
2018-Jun-13 09:30N 37°56' E 023°40'0 0.0
2018-Jun-13 09:00N 37°56' E 023°40'0 0.0
2018-Jun-13 08:30N 37°56' E 023°40'0 0.0
2018-Jun-13 07:57N 37°56' E 023°40'0 0.0
2018-Jun-13 07:30N 37°56' E 023°40'0 0.0
2018-Jun-13 07:00N 37°56' E 023°40'0 0.0
2018-Jun-13 06:30N 37°56' E 023°40'0 0.0
2018-Jun-13 06:00N 37°56' E 023°40'0 0.0
2018-Jun-13 05:30N 37°56' E 023°40'0 0.0
2018-Jun-13 05:00N 37°56' E 023°40'0 0.0
2018-Jun-13 04:30N 37°56' E 023°40'0 0.0
2018-Jun-13 04:00N 37°56' E 023°40'0 0.0
2018-Jun-13 03:30N 37°56' E 023°40'0 0.0
2018-Jun-13 03:00N 37°56' E 023°40'0 0.0
2018-Jun-13 02:30N 37°56' E 023°40'0 0.0
2018-Jun-13 02:00N 37°56' E 023°40'0 0.0
2018-Jun-13 01:30N 37°56' E 023°40'0 0.0
2018-Jun-13 01:00N 37°56' E 023°40'0 0.0
2018-Jun-13 00:30N 37°56' E 023°40'0 0.0
2018-Jun-13 00:00N 37°56' E 023°40'0 0.0
2018-Jun-12 23:30N 37°56' E 023°40'0 0.0
2018-Jun-12 23:00N 37°56' E 023°40'0 0.0
2018-Jun-12 22:30N 37°56' E 023°40'0 0.0
2018-Jun-12 21:57N 37°56' E 023°40'0 0.0
2018-Jun-12 21:30N 37°56' E 023°40'0 0.0
2018-Jun-12 21:00N 37°56' E 023°40'0 0.0
2018-Jun-12 20:30N 37°56' E 023°40'0 0.0
2018-Jun-12 20:00N 37°56' E 023°40'0 0.0
2018-Jun-12 19:30N 37°56' E 023°40'0 0.0
2018-Jun-12 19:00N 37°56' E 023°40'0 0.0
2018-Jun-12 18:30N 37°56' E 023°40'0 0.0
2018-Jun-12 18:00N 37°56' E 023°40'0 0.0
2018-Jun-12 17:30N 37°56' E 023°40'0 0.0
2018-Jun-12 17:00N 37°56' E 023°40'0 0.0
2018-Jun-12 16:30N 37°56' E 023°40'0 0.0
2018-Jun-12 16:00N 37°56' E 023°40'0 0.0
2018-Jun-12 15:27N 37°56' E 023°40'0 0.0
2018-Jun-12 15:00N 37°56' E 023°40'0 0.0
2018-Jun-12 14:30N 37°56' E 023°40'0 0.0
2018-Jun-12 14:00N 37°56' E 023°40'0 0.0
2018-Jun-12 13:30N 37°56' E 023°40'0 0.0
2018-Jun-12 13:00N 37°56' E 023°40'0 0.0
2018-Jun-12 12:30N 37°56' E 023°40'0 0.0
2018-Jun-12 12:00N 37°56' E 023°40'0 0.0
2018-Jun-12 11:30N 37°56' E 023°40'0 0.0
2018-Jun-12 10:57N 37°56' E 023°40'0 0.0
2018-Jun-12 10:30N 37°56' E 023°40'0 0.0
2018-Jun-12 10:00N 37°56' E 023°40'0 0.0
2018-Jun-12 09:27N 37°56' E 023°40'0 0.0
2018-Jun-12 09:00N 37°56' E 023°40'0 0.0
2018-Jun-12 08:30N 37°56' E 023°40'0 0.0
2018-Jun-12 08:00N 37°56' E 023°40'0 0.0
2018-Jun-12 07:30N 37°56' E 023°40'0 0.0
2018-Jun-12 07:00N 37°56' E 023°40'0 0.0
2018-Jun-12 06:30N 37°56' E 023°40'0 0.0
2018-Jun-12 06:00N 37°56' E 023°40'0 0.0
2018-Jun-12 05:30N 37°56' E 023°40'0 0.0
2018-Jun-12 05:00N 37°56' E 023°40'0 0.0
2018-Jun-12 04:30N 37°56' E 023°40'0 0.0
2018-Jun-12 04:00N 37°56' E 023°40'0 0.0
2018-Jun-12 03:27N 37°56' E 023°40'0 0.0
2018-Jun-12 03:00N 37°56' E 023°40'0 0.0
2018-Jun-12 02:30N 37°56' E 023°40'0 0.0
2018-Jun-12 02:00N 37°56' E 023°40'0 0.0
2018-Jun-12 01:30N 37°56' E 023°40'0 0.0
2018-Jun-12 01:00N 37°56' E 023°40'0 0.0
2018-Jun-12 00:30N 37°56' E 023°40'0 0.0
2018-Jun-12 00:00N 37°56' E 023°40'0 0.0
2018-Jun-11 23:30N 37°56' E 023°40'0 0.0
2018-Jun-11 23:00N 37°56' E 023°40'0 0.0
2018-Jun-11 22:30N 37°56' E 023°40'0 0.0
2018-Jun-11 22:00N 37°56' E 023°40'0 0.0
2018-Jun-11 21:30N 37°56' E 023°40'0 0.0
2018-Jun-11 21:00N 37°56' E 023°40'0 0.0
2018-Jun-11 20:27N 37°56' E 023°40'0 0.0
2018-Jun-11 20:00N 37°56' E 023°40'0 0.0
2018-Jun-11 19:30N 37°56' E 023°40'0 0.0
2018-Jun-11 18:57N 37°56' E 023°40'0 0.0
2018-Jun-11 18:30N 37°56' E 023°40'0 0.0
2018-Jun-11 18:00N 37°56' E 023°40'0 0.0
2018-Jun-11 17:27N 37°56' E 023°40'0 0.0
2018-Jun-11 17:00N 37°56' E 023°40'0 0.0
2018-Jun-11 16:30N 37°56' E 023°40'0 0.0
2018-Jun-11 16:00N 37°56' E 023°40'0 0.0
2018-Jun-11 15:30N 37°56' E 023°40'0 0.0
2018-Jun-11 15:00N 37°56' E 023°40'0 0.0
2018-Jun-11 14:30N 37°56' E 023°40'0 0.0
2018-Jun-11 14:00N 37°56' E 023°40'0 0.0
2018-Jun-11 13:30N 37°56' E 023°40'0 0.0
2018-Jun-11 13:00N 37°56' E 023°40'0 0.0
2018-Jun-11 12:27N 37°56' E 023°40'0 0.0
2018-Jun-11 12:00N 37°56' E 023°40'0 0.0
2018-Jun-11 11:30N 37°56' E 023°40'0 0.0
2018-Jun-11 11:00N 37°56' E 023°40'0 0.0
2018-Jun-11 10:30N 37°56' E 023°40'0 0.0
2018-Jun-11 10:00N 37°56' E 023°40'0 0.0
2018-Jun-11 09:30N 37°56' E 023°40'0 0.0
2018-Jun-11 09:00N 37°56' E 023°40'0 0.0
2018-Jun-11 08:30N 37°56' E 023°40'0 0.0
2018-Jun-11 08:00N 37°56' E 023°40'0 0.0
2018-Jun-11 07:30N 37°56' E 023°40'0 0.0
2018-Jun-11 07:00N 37°56' E 023°40'0 0.0
2018-Jun-11 06:30N 37°56' E 023°40'0 0.0
2018-Jun-11 06:00N 37°56' E 023°40'0 0.0
2018-Jun-11 05:30N 37°56' E 023°40'0 0.0
2018-Jun-11 05:00N 37°56' E 023°40'0 0.0
2018-Jun-11 04:30N 37°56' E 023°40'0 0.0
2018-Jun-11 04:00N 37°56' E 023°40'0 0.0
2018-Jun-11 03:30N 37°56' E 023°40'0 0.0
2018-Jun-11 03:00N 37°56' E 023°40'0 0.0
2018-Jun-11 02:30N 37°56' E 023°40'0 0.0
2018-Jun-11 02:00N 37°56' E 023°40'0 0.0
2018-Jun-11 01:30N 37°56' E 023°40'0 0.0
2018-Jun-11 01:00N 37°56' E 023°40'0 0.0
2018-Jun-11 00:30N 37°56' E 023°40'0 0.0
2018-Jun-11 00:00N 37°56' E 023°40'0 0.0
2018-Jun-10 23:30N 37°56' E 023°40'0 0.0
2018-Jun-10 23:00N 37°56' E 023°40'0 0.0
2018-Jun-10 22:30N 37°56' E 023°40'0 0.0
2018-Jun-10 22:00N 37°56' E 023°40'0 0.0
2018-Jun-10 21:30N 37°56' E 023°40'0 0.0
2018-Jun-10 21:00N 37°56' E 023°40'0 0.0
2018-Jun-10 20:30N 37°56' E 023°40'0 0.0
2018-Jun-10 20:00N 37°56' E 023°40'0 0.0
2018-Jun-10 19:30N 37°56' E 023°40'0 0.0
2018-Jun-10 19:00N 37°56' E 023°40'0 0.0
2018-Jun-10 18:30N 37°56' E 023°40'0 0.0
2018-Jun-10 17:57N 37°56' E 023°40'0 0.0
2018-Jun-10 17:30N 37°56' E 023°40'0 0.0
2018-Jun-10 16:57N 37°56' E 023°40'0 0.0
2018-Jun-10 16:30N 37°56' E 023°40'0 0.0
2018-Jun-10 16:00N 37°56' E 023°40'0 0.0
2018-Jun-10 15:30N 37°56' E 023°40'0 0.0
2018-Jun-10 15:00N 37°56' E 023°40'0 0.0
2018-Jun-10 14:30N 37°56' E 023°40'0 0.0
2018-Jun-10 13:30N 37°56' E 023°40'0 0.0
2018-Jun-10 13:00N 37°56' E 023°40'0 0.0
2018-Jun-10 12:30N 37°56' E 023°40'0 0.0
2018-Jun-10 12:00N 37°56' E 023°40'0 0.0
2018-Jun-10 11:30N 37°56' E 023°40'0 0.0
2018-Jun-10 11:00N 37°56' E 023°40'0 0.0
2018-Jun-10 10:30N 37°56' E 023°40'0 0.0
2018-Jun-10 10:00N 37°56' E 023°40'0 0.0
2018-Jun-10 09:27N 37°56' E 023°40'0 0.0
2018-Jun-10 09:00N 37°56' E 023°40'0 0.0
2018-Jun-10 08:30N 37°56' E 023°40'0 0.0
2018-Jun-10 07:57N 37°56' E 023°40'0 0.0
2018-Jun-10 07:30N 37°56' E 023°40'0 0.0
2018-Jun-10 07:00N 37°56' E 023°40'0 0.0
2018-Jun-10 06:30N 37°56' E 023°40'0 0.0
2018-Jun-10 06:00N 37°56' E 023°40'0 0.0
2018-Jun-10 05:30N 37°56' E 023°40'0 0.0
2018-Jun-10 04:57N 37°56' E 023°40'0 0.0
2018-Jun-10 04:27N 37°56' E 023°40'0 0.0
2018-Jun-10 04:00N 37°56' E 023°40'0 0.0
2018-Jun-10 03:30N 37°56' E 023°40'0 0.0
2018-Jun-10 02:57N 37°56' E 023°40'0 0.0
2018-Jun-10 02:30N 37°56' E 023°40'0 0.0
2018-Jun-10 02:00N 37°56' E 023°40'0 0.0
2018-Jun-10 01:30N 37°56' E 023°40'0 0.0
2018-Jun-10 01:00N 37°56' E 023°40'0 0.0
2018-Jun-10 00:30N 37°56' E 023°40'0 0.0
2018-Jun-10 00:00N 37°56' E 023°40'0 0.0
2018-Jun-09 23:30N 37°56' E 023°40'0 0.0
2018-Jun-09 23:00N 37°56' E 023°40'0 0.0
2018-Jun-09 22:30N 37°56' E 023°40'0 0.0
2018-Jun-09 22:00N 37°56' E 023°40'0 0.0
2018-Jun-09 21:30N 37°56' E 023°40'0 0.0
2018-Jun-09 21:00N 37°56' E 023°40'0 0.0
2018-Jun-09 20:30N 37°56' E 023°40'0 0.0
2018-Jun-09 20:00N 37°56' E 023°40'0 0.0
2018-Jun-09 19:30N 37°56' E 023°40'0 0.0
2018-Jun-09 19:00N 37°56' E 023°40'0 0.0
2018-Jun-09 18:30N 37°56' E 023°40'0 0.0
2018-Jun-09 18:00N 37°56' E 023°40'0 0.0
2018-Jun-09 17:30N 37°56' E 023°40'0 0.0
2018-Jun-09 17:00N 37°56' E 023°40'0 0.0
2018-Jun-09 16:30N 37°56' E 023°40'0 0.0
2018-Jun-09 16:00N 37°56' E 023°40'0 0.0
2018-Jun-09 15:00N 37°56' E 023°40'0 0.0
2018-Jun-09 14:30N 37°56' E 023°40'0 0.0
2018-Jun-09 14:00N 37°56' E 023°40'0 0.0
2018-Jun-09 13:31N 37°56' E 023°40'0 0.0
2018-Jun-09 13:00N 37°56' E 023°40'0 0.0
2018-Jun-09 12:30N 37°56' E 023°40'0 0.0
2018-Jun-09 12:01N 37°56' E 023°40'0 0.0
2018-Jun-09 11:30N 37°56' E 023°40'0 0.0
2018-Jun-09 10:57N 37°56' E 023°40'0 0.0
2018-Jun-09 10:31N 37°56' E 023°40'0 0.0
2018-Jun-09 10:01N 37°56' E 023°40'0 0.0
2018-Jun-09 09:31N 37°56' E 023°40'0 0.0
2018-Jun-09 09:01N 37°56' E 023°40'0 0.0
2018-Jun-09 08:31N 37°56' E 023°40'0 0.0
2018-Jun-09 07:58N 37°56' E 023°40'0 0.0
2018-Jun-09 07:31N 37°56' E 023°40'0 0.0
2018-Jun-09 06:58N 37°56' E 023°40'0 0.0
2018-Jun-09 06:31N 37°56' E 023°40'0 0.0
2018-Jun-09 05:58N 37°56' E 023°40'0 0.0
2018-Jun-09 05:28N 37°56' E 023°40'0 0.0
2018-Jun-09 04:58N 37°56' E 023°40'0 0.0
2018-Jun-09 04:28N 37°56' E 023°40'0 0.0
2018-Jun-09 03:58N 37°56' E 023°40'0 0.0
2018-Jun-09 03:28N 37°56' E 023°40'0 0.0
2018-Jun-09 02:58N 37°56' E 023°40'0 0.0
2018-Jun-09 02:28N 37°56' E 023°40'0 0.0
2018-Jun-09 01:55N 37°56' E 023°40'0 0.0
2018-Jun-09 01:28N 37°56' E 023°40'0 0.0
2018-Jun-09 00:58N 37°56' E 023°40'0 0.0
2018-Jun-09 00:28N 37°56' E 023°40'0 0.0
2018-Jun-08 23:58N 37°56' E 023°40'0 0.0
2018-Jun-08 23:28N 37°56' E 023°40'0 0.0
2018-Jun-08 22:58N 37°56' E 023°40'0 0.0
2018-Jun-08 22:28N 37°56' E 023°40'0 0.0
2018-Jun-08 21:58N 37°56' E 023°40'0 0.0
2018-Jun-08 21:25N 37°56' E 023°40'0 0.0
2018-Jun-08 20:55N 37°56' E 023°40'0 0.0
2018-Jun-08 20:28N 37°56' E 023°40'0 0.0
2018-Jun-08 19:58N 37°56' E 023°40'0 0.0
2018-Jun-08 19:28N 37°56' E 023°40'0 0.0
2018-Jun-08 18:58N 37°56' E 023°40'0 0.0
2018-Jun-08 18:28N 37°56' E 023°40'0 0.0
2018-Jun-08 17:58N 37°56' E 023°40'0 0.0
2018-Jun-08 17:28N 37°56' E 023°40'0 0.0
2018-Jun-08 16:58N 37°56' E 023°40'0 0.0
2018-Jun-08 16:28N 37°56' E 023°40'0 0.0
2018-Jun-08 15:58N 37°56' E 023°40'0 0.0
2018-Jun-08 15:28N 37°56' E 023°40'0 0.0
2018-Jun-08 14:55N 37°56' E 023°40'0 0.0
2018-Jun-08 14:28N 37°56' E 023°40'0 0.0
2018-Jun-08 13:58N 37°56' E 023°40'0 0.0
2018-Jun-08 13:28N 37°56' E 023°40'0 0.0
2018-Jun-08 12:55N 37°56' E 023°40'0 0.0
2018-Jun-08 12:28N 37°56' E 023°40'0 0.0
2018-Jun-08 11:58N 37°56' E 023°40'0 0.0
2018-Jun-08 11:28N 37°56' E 023°40'0 0.0
2018-Jun-08 10:58N 37°56' E 023°40'0 0.0
2018-Jun-08 10:25N 37°56' E 023°40'0 0.0
2018-Jun-08 09:58N 37°56' E 023°40'0 0.0
2018-Jun-08 09:28N 37°56' E 023°40'0 0.0
2018-Jun-08 08:58N 37°56' E 023°40'0 0.0
2018-Jun-08 08:28N 37°56' E 023°40'0 0.0
2018-Jun-08 07:58N 37°56' E 023°40'0 0.0
2018-Jun-08 07:28N 37°56' E 023°40'0 0.0
2018-Jun-08 06:58N 37°56' E 023°40'0 0.0
2018-Jun-08 06:28N 37°56' E 023°40'0 0.0
2018-Jun-08 05:58N 37°56' E 023°40'0 0.0
2018-Jun-08 05:28N 37°56' E 023°40'0 0.0
2018-Jun-08 04:58N 37°56' E 023°40'0 0.0
2018-Jun-08 04:25N 37°56' E 023°40'0 0.0
2018-Jun-08 03:58N 37°56' E 023°40'0 0.0
2018-Jun-08 03:28N 37°56' E 023°40'0 0.0
2018-Jun-08 02:58N 37°56' E 023°40'0 0.0
2018-Jun-08 02:28N 37°56' E 023°40'0 0.0
2018-Jun-08 01:58N 37°56' E 023°40'0 0.0
2018-Jun-08 01:28N 37°56' E 023°40'0 0.0
2018-Jun-08 00:58N 37°56' E 023°40'0 0.0
2018-Jun-08 00:28N 37°56' E 023°40'0 0.0
2018-Jun-07 23:58N 37°56' E 023°40'0 0.0
2018-Jun-07 23:28N 37°56' E 023°40'0 0.0
2018-Jun-07 22:58N 37°56' E 023°40'0 0.0
2018-Jun-07 22:28N 37°56' E 023°40'0 0.0
2018-Jun-07 21:58N 37°56' E 023°40'0 0.0
2018-Jun-07 21:28N 37°56' E 023°40'0 0.0
2018-Jun-07 20:58N 37°56' E 023°40'0 0.0
2018-Jun-07 20:28N 37°56' E 023°40'0 0.0
2018-Jun-07 19:58N 37°56' E 023°40'0 0.0
2018-Jun-07 19:28N 37°56' E 023°40'0 0.0
2018-Jun-07 18:58N 37°56' E 023°40'0 0.0
2018-Jun-07 18:28N 37°56' E 023°40'0 0.0
2018-Jun-07 17:58N 37°56' E 023°40'0 0.0
2018-Jun-07 17:28N 37°56' E 023°40'0 0.0
2018-Jun-07 16:58N 37°56' E 023°40'0 0.0
2018-Jun-07 16:28N 37°56' E 023°40'0 0.0
2018-Jun-07 15:58N 37°56' E 023°40'0 0.0
2018-Jun-07 15:28N 37°56' E 023°40'0 0.0
2018-Jun-07 14:58N 37°56' E 023°40'0 0.0
2018-Jun-07 14:28N 37°56' E 023°40'0 0.0
2018-Jun-07 13:58N 37°56' E 023°40'0 0.0
2018-Jun-07 13:28N 37°56' E 023°40'0 0.0
2018-Jun-07 12:58N 37°56' E 023°40'0 0.0
2018-Jun-07 12:28N 37°56' E 023°40'0 0.0
2018-Jun-07 11:58N 37°56' E 023°40'0 0.0
2018-Jun-07 11:28N 37°56' E 023°40'0 0.0
2018-Jun-07 10:58N 37°56' E 023°40'0 0.0
2018-Jun-07 10:28N 37°56' E 023°40'0 0.0
2018-Jun-07 09:58N 37°56' E 023°40'0 0.0
2018-Jun-07 09:25N 37°56' E 023°40'0 0.0
2018-Jun-07 08:58N 37°56' E 023°40'0 0.0
2018-Jun-07 08:28N 37°56' E 023°40'0 0.0
2018-Jun-07 07:58N 37°56' E 023°40'0 0.0
2018-Jun-07 07:28N 37°56' E 023°40'0 0.0
2018-Jun-07 06:55N 37°56' E 023°40'0 0.0
2018-Jun-07 06:28N 37°56' E 023°40'0 0.0
2018-Jun-07 05:58N 37°56' E 023°40'0 0.0
2018-Jun-07 05:28N 37°56' E 023°40'0 0.0
2018-Jun-07 04:58N 37°56' E 023°40'0 0.0
2018-Jun-07 04:28N 37°56' E 023°40'0 0.0
2018-Jun-07 03:58N 37°56' E 023°40'0 0.0
2018-Jun-07 03:28N 37°56' E 023°40'0 0.0
2018-Jun-07 02:58N 37°56' E 023°40'0 0.0
2018-Jun-07 02:28N 37°56' E 023°40'0 0.0
2018-Jun-07 01:58N 37°56' E 023°40'0 0.0
2018-Jun-07 01:19N 37°56' E 023°40'0 0.0
2018-Jun-07 00:58N 37°56' E 023°40'0 0.0
2018-Jun-07 00:28N 37°56' E 023°40'0 0.0
2018-Jun-06 23:55N 37°56' E 023°40'0 0.0
2018-Jun-06 23:28N 37°56' E 023°40'0 0.0
2018-Jun-06 22:58N 37°56' E 023°40'0 0.0
2018-Jun-06 22:28N 37°56' E 023°40'0 0.0
2018-Jun-06 21:58N 37°56' E 023°40'0 0.0
2018-Jun-06 21:28N 37°56' E 023°40'0 0.0
2018-Jun-06 20:58N 37°56' E 023°40'0 0.0
2018-Jun-06 20:28N 37°56' E 023°40'0 0.0
2018-Jun-06 19:58N 37°56' E 023°40'0 0.0
2018-Jun-06 19:28N 37°56' E 023°40'0 0.0
2018-Jun-06 18:58N 37°56' E 023°40'0 0.0
2018-Jun-06 18:28N 37°56' E 023°40'0 0.0
2018-Jun-06 17:58N 37°56' E 023°40'0 0.0
2018-Jun-06 17:28N 37°56' E 023°40'0 0.0
2018-Jun-06 16:58N 37°56' E 023°40'0 0.0
2018-Jun-06 16:28N 37°56' E 023°40'0 0.0
2018-Jun-06 15:58N 37°56' E 023°40'0 0.0
2018-Jun-06 15:28N 37°56' E 023°40'0 0.0
2018-Jun-06 14:58N 37°56' E 023°40'0 0.0
2018-Jun-06 14:28N 37°56' E 023°40'0 0.0
2018-Jun-06 13:58N 37°56' E 023°40'0 0.0
2018-Jun-06 13:28N 37°56' E 023°40'0 0.0
2018-Jun-06 12:58N 37°56' E 023°40'0 0.0
2018-Jun-06 12:28N 37°56' E 023°40'0 0.0
2018-Jun-06 11:58N 37°56' E 023°40'2 3.4
2018-Jun-06 11:30N 37°56' E 023°38'3 5.9
2018-Jun-06 11:00N 37°55' E 023°35'3 5.9
2018-Jun-06 10:30N 37°54' E 023°31'3 5.2
2018-Jun-06 09:57N 37°53' E 023°28'0 0.9
2018-Jun-06 09:28N 37°53' E 023°27'0 0.0
2018-Jun-06 08:55N 37°53' E 023°27'0 0.0
2018-Jun-06 08:28N 37°53' E 023°27'0 0.0
2018-Jun-06 07:52N 37°53' E 023°27'0 0.0
2018-Jun-06 07:28N 37°53' E 023°27'0 0.0
2018-Jun-06 06:52N 37°53' E 023°27'0 0.0
2018-Jun-06 06:28N 37°53' E 023°27'0 0.0
2018-Jun-06 05:52N 37°53' E 023°27'0 0.0
2018-Jun-06 05:28N 37°53' E 023°27'0 0.0
2018-Jun-06 04:58N 37°53' E 023°27'0 0.0
2018-Jun-06 04:28N 37°53' E 023°27'0 0.0
2018-Jun-06 03:55N 37°53' E 023°27'0 0.0
2018-Jun-06 03:28N 37°53' E 023°27'0 0.0
2018-Jun-06 02:58N 37°53' E 023°27'0 0.0
2018-Jun-06 02:28N 37°53' E 023°27'0 0.0
2018-Jun-06 01:58N 37°53' E 023°27'0 0.0
2018-Jun-06 01:28N 37°53' E 023°27'0 0.0
2018-Jun-06 00:58N 37°53' E 023°27'0 0.0
2018-Jun-06 00:28N 37°53' E 023°27'0 0.0
2018-Jun-05 23:55N 37°53' E 023°27'0 0.0
2018-Jun-05 23:28N 37°53' E 023°27'0 0.0
2018-Jun-05 22:55N 37°53' E 023°27'0 0.0
2018-Jun-05 22:28N 37°53' E 023°27'0 0.0
2018-Jun-05 21:58N 37°53' E 023°27'0 0.0
2018-Jun-05 21:28N 37°53' E 023°27'0 0.0
2018-Jun-05 20:58N 37°53' E 023°27'0 0.0
2018-Jun-05 20:28N 37°53' E 023°27'0 0.0
2018-Jun-05 19:58N 37°53' E 023°27'0 0.0
2018-Jun-05 19:28N 37°53' E 023°27'0 0.0
2018-Jun-05 18:58N 37°53' E 023°27'0 0.0
2018-Jun-05 18:28N 37°53' E 023°27'0 0.0
2018-Jun-05 17:58N 37°53' E 023°27'0 0.0
2018-Jun-05 17:28N 37°53' E 023°27'0 0.0
2018-Jun-05 16:58N 37°53' E 023°27'0 0.0
2018-Jun-05 16:28N 37°53' E 023°27'0 0.0
2018-Jun-05 15:58N 37°53' E 023°27'0 0.0
2018-Jun-05 15:28N 37°53' E 023°27'0 0.0
2018-Jun-05 14:58N 37°53' E 023°27'0 0.0
2018-Jun-05 14:28N 37°53' E 023°27'0 0.0
2018-Jun-05 13:58N 37°53' E 023°27'0 0.0
2018-Jun-05 13:28N 37°53' E 023°27'0 0.1
2018-Jun-05 13:00N 37°53' E 023°27'2 4.5
2018-Jun-05 12:30N 37°51' E 023°25'2 3.7
2018-Jun-05 12:00N 37°51' E 023°23'2 4.1
2018-Jun-05 11:30N 37°50' E 023°20'2 4.6
2018-Jun-05 11:00N 37°49' E 023°18'2 1.4
2018-Jun-05 09:27N 37°48' E 023°15'2 4.4
2018-Jun-05 08:57N 37°46' E 023°14'  

Dump ship's entire track history